Time;durP1;ratioP1;P1;durP2;ratioP2;P2;SDS_P1;SDS_P2;PMS_P1;PMS_P2;Temp;Humidity;BMP_temperature;BMP_pressure;BME280_temperature;BME280_humidity;BME280_pressure;Samples;Min_cycle;Max_cycle;Signal;HPM_P1;HPM_P2
2022/06/09 00:01:53;;;;;;;9.30;3.45;;;27.90;99.90;;;;;;1827428;77;21420;-83
2022/06/09 00:04:28;;;;;;;6.90;3.15;;;28.10;99.90;;;;;;1836526;77;21154;-83
2022/06/09 00:07:01;;;;;;;7.30;2.92;;;27.80;99.90;;;;;;1815971;79;21095;-82
2022/06/09 00:09:34;;;;;;;6.17;3.12;;;27.80;99.90;;;;;;1818709;77;21154;-82
2022/06/09 00:12:06;;;;;;;7.33;3.35;;;27.90;99.90;;;;;;1815804;77;21162;-83
2022/06/09 00:14:38;;;;;;;9.68;3.12;;;27.80;99.90;;;;;;1815640;77;21192;-81
2022/06/09 00:17:09;;;;;;;7.78;3.35;;;27.90;99.90;;;;;;1828873;77;21640;-81
2022/06/09 00:19:40;;;;;;;10.18;4.28;;;28.00;99.90;;;;;;1814654;77;21219;-82
2022/06/09 00:22:11;;;;;;;7.85;3.00;;;28.30;99.90;;;;;;1817134;77;21264;-82
2022/06/09 00:24:43;;;;;;;7.70;2.98;;;28.00;99.90;;;;;;1817943;77;21091;-83
2022/06/09 00:27:14;;;;;;;6.78;3.33;;;28.00;99.90;;;;;;1824299;77;21162;-82
2022/06/09 00:29:46;;;;;;;5.12;2.95;;;28.10;99.90;;;;;;1822494;77;21056;-80
2022/06/09 00:32:17;;;;;;;6.50;2.90;;;28.10;99.90;;;;;;1827852;77;21106;-80
2022/06/09 00:34:48;;;;;;;7.65;2.98;;;28.30;99.90;;;;;;1823621;77;21145;-80
2022/06/09 00:37:19;;;;;;;6.17;2.50;;;28.20;99.90;;;;;;1821775;77;21112;-83
2022/06/09 00:39:55;;;;;;;6.83;2.98;;;28.40;99.90;;;;;;1823849;77;21197;-82
2022/06/09 00:42:26;;;;;;;10.03;3.30;;;28.40;99.90;;;;;;1826449;77;21142;-83
2022/06/09 00:44:56;;;;;;;6.35;2.87;;;28.40;99.90;;;;;;1817342;77;21166;-83
2022/06/09 00:47:30;;;;;;;11.43;3.05;;;28.70;99.90;;;;;;1819765;77;21581;-82
2022/06/09 00:50:01;;;;;;;6.95;3.10;;;28.40;99.90;;;;;;1813838;77;21130;-82
2022/06/09 00:52:36;;;;;;;5.92;2.72;;;28.80;99.90;;;;;;1820351;77;21146;-83
2022/06/09 00:55:09;;;;;;;9.25;3.10;;;28.50;99.90;;;;;;1820453;76;21110;-82
2022/06/09 00:57:43;;;;;;;4.85;2.70;;;28.70;99.90;;;;;;1843449;76;21265;-83
2022/06/09 01:00:16;;;;;;;6.15;3.10;;;28.60;99.90;;;;;;1821291;77;21232;-83
2022/06/09 01:02:48;;;;;;;8.80;2.95;;;28.60;99.90;;;;;;1819964;77;21122;-83
2022/06/09 01:05:21;;;;;;;6.78;2.95;;;28.70;99.90;;;;;;1817259;77;21554;-84
2022/06/09 01:07:54;;;;;;;7.12;2.90;;;28.70;99.90;;;;;;1812991;78;21129;-83
2022/06/09 01:10:29;;;;;;;6.33;2.52;;;28.70;99.90;;;;;;1819637;77;21169;-83
2022/06/09 01:12:59;;;;;;;10.75;3.00;;;28.70;99.90;;;;;;1809858;77;21115;-84
2022/06/09 01:15:33;;;;;;;6.50;3.10;;;28.80;99.90;;;;;;1816681;77;21169;-84
2022/06/09 01:18:07;;;;;;;8.70;2.70;;;29.10;99.90;;;;;;1790527;79;21591;-84
2022/06/09 01:20:40;;;;;;;11.57;3.22;;;28.80;99.90;;;;;;1781153;79;21685;-83
2022/06/09 01:23:14;;;;;;;9.45;2.83;;;28.90;99.90;;;;;;1808791;77;21202;-83
2022/06/09 01:25:45;;;;;;;6.17;2.70;;;28.80;99.90;;;;;;1814232;77;21210;-84
2022/06/09 01:28:19;;;;;;;5.60;3.02;;;29.30;99.90;;;;;;1822380;77;21106;-83
2022/06/09 01:30:51;;;;;;;7.05;3.15;;;29.00;99.90;;;;;;1828743;77;21110;-85
2022/06/09 01:33:24;;;;;;;5.20;2.50;;;29.20;99.90;;;;;;1826831;77;21216;-85
2022/06/09 01:35:59;;;;;;;7.37;2.70;;;29.30;99.90;;;;;;1820607;77;21126;-84
2022/06/09 01:38:30;;;;;;;7.60;2.58;;;29.70;99.90;;;;;;1847090;76;21255;-84
2022/06/09 01:41:01;;;;;;;7.15;2.58;;;29.50;99.90;;;;;;1827735;76;21035;-84
2022/06/09 01:43:33;;;;;;;7.10;2.47;;;29.80;99.90;;;;;;1852772;76;21062;-84
2022/06/09 01:46:05;;;;;;;4.20;2.33;;;30.10;99.90;;;;;;1848041;76;21200;-83
2022/06/09 01:48:37;;;;;;;9.08;2.70;;;30.30;99.90;;;;;;1832992;78;21172;-83
2022/06/09 01:51:12;;;;;;;7.67;2.60;;;30.00;99.90;;;;;;1832294;76;21158;-72
2022/06/09 01:53:46;;;;;;;6.30;3.02;;;30.00;99.90;;;;;;1803300;77;21195;-74
2022/06/09 01:56:19;;;;;;;4.87;2.35;;;30.10;99.90;;;;;;1822259;78;21591;-73
2022/06/09 01:58:52;;;;;;;5.67;3.08;;;30.20;99.90;;;;;;1811119;79;21209;-73
2022/06/09 02:01:26;;;;;;;5.40;2.37;;;30.40;99.90;;;;;;1821512;77;21573;-73
2022/06/09 02:03:59;;;;;;;6.25;2.77;;;30.40;99.90;;;;;;1825190;77;21158;-72
2022/06/09 02:06:33;;;;;;;6.47;2.55;;;30.30;99.90;;;;;;1831987;77;21196;-74
2022/06/09 02:09:05;;;;;;;5.20;2.50;;;30.70;99.90;;;;;;1836089;77;21139;-72
2022/06/09 02:11:38;;;;;;;6.22;2.65;;;30.80;99.90;;;;;;1803764;77;21642;-75
2022/06/09 02:14:09;;;;;;;6.05;2.47;;;30.80;99.90;;;;;;1826655;77;21693;-73
2022/06/09 02:16:40;;;;;;;7.37;3.10;;;30.60;99.90;;;;;;1812060;78;21122;-73
2022/06/09 02:19:12;;;;;;;6.03;2.47;;;31.00;99.90;;;;;;1828913;77;21837;-73
2022/06/09 02:21:43;;;;;;;5.58;2.70;;;30.80;99.90;;;;;;1816198;77;21225;-72
2022/06/09 02:24:14;;;;;;;7.20;3.25;;;31.00;99.90;;;;;;1812635;77;22089;-73
2022/06/09 02:26:45;;;;;;;8.13;2.72;;;31.20;99.90;;;;;;1811463;79;21684;-73
2022/06/09 02:29:16;;;;;;;7.12;3.20;;;30.90;99.90;;;;;;1818667;78;21622;-72
2022/06/09 02:31:47;;;;;;;5.55;2.90;;;31.00;99.90;;;;;;1837582;77;21146;-73
2022/06/09 02:34:18;;;;;;;4.60;2.30;;;31.30;99.90;;;;;;1836775;77;21059;-72
2022/06/09 02:36:49;;;;;;;5.85;2.60;;;31.10;99.90;;;;;;1834695;77;21614;-73
2022/06/09 02:39:20;;;;;;;7.15;2.45;;;31.00;99.90;;;;;;1834600;77;21154;-73
2022/06/09 02:41:51;;;;;;;4.92;2.40;;;31.30;99.90;;;;;;1855363;76;21215;-73
2022/06/09 02:44:22;;;;;;;5.28;2.25;;;31.10;99.90;;;;;;1847795;77;21158;-73
2022/06/09 02:46:54;;;;;;;7.70;2.58;;;31.20;99.90;;;;;;1840491;77;21605;-72
2022/06/09 02:49:26;;;;;;;5.10;2.42;;;31.40;99.90;;;;;;1818445;77;21695;-73
2022/06/09 02:51:57;;;;;;;4.83;2.37;;;31.40;99.90;;;;;;1798014;78;21677;-73
2022/06/09 02:54:28;;;;;;;4.58;2.85;;;31.20;99.90;;;;;;1832550;76;21605;-72
2022/06/09 02:56:58;;;;;;;8.53;3.62;;;31.20;99.90;;;;;;1837433;77;21576;-72
2022/06/09 02:59:32;;;;;;;6.12;2.72;;;31.60;99.90;;;;;;1715297;82;21209;-72
2022/06/09 03:02:03;;;;;;;6.03;2.50;;;31.80;99.90;;;;;;1705301;83;21793;-73
2022/06/09 03:04:37;;;;;;;7.40;2.45;;;31.60;99.90;;;;;;1690613;83;21277;-72
2022/06/09 03:07:12;;;;;;;8.48;3.00;;;31.60;99.90;;;;;;1707203;82;21334;-73
2022/06/09 03:09:43;;;;;;;6.03;2.42;;;31.70;99.90;;;;;;1654713;85;21242;-74
2022/06/09 03:12:14;;;;;;;7.22;2.52;;;32.00;99.90;;;;;;1718430;82;21123;-73
2022/06/09 03:14:45;;;;;;;7.53;2.98;;;32.00;99.90;;;;;;1669871;85;21260;-74
2022/06/09 03:17:18;;;;;;;6.50;2.70;;;32.20;99.90;;;;;;1634989;86;21303;-73
2022/06/09 03:19:49;;;;;;;5.47;2.33;;;32.10;99.90;;;;;;1695131;82;21213;-71
2022/06/09 03:22:22;;;;;;;6.40;2.27;;;32.50;99.90;;;;;;1651785;85;21192;-73
2022/06/09 03:24:53;;;;;;;6.40;1.80;;;32.30;99.90;;;;;;1661851;85;21695;-71
2022/06/09 03:27:24;;;;;;;7.53;1.87;;;32.60;99.90;;;;;;1652397;85;21295;-72
2022/06/09 03:29:56;;;;;;;5.10;2.27;;;32.90;99.90;;;;;;1666756;81;21159;-72
2022/06/09 03:32:27;;;;;;;5.70;1.90;;;32.90;99.90;;;;;;1771192;79;21147;-72
2022/06/09 03:34:58;;;;;;;7.37;2.00;;;32.90;99.90;;;;;;1799414;78;21599;-72
2022/06/09 03:37:29;;;;;;;4.12;1.75;;;32.70;99.90;;;;;;1800503;78;21184;-72
2022/06/09 03:40:00;;;;;;;5.28;2.40;;;32.80;99.90;;;;;;1788307;78;21179;-72
2022/06/09 03:42:31;;;;;;;8.18;2.50;;;32.50;99.90;;;;;;1800190;78;21179;-73
2022/06/09 03:45:02;;;;;;;5.20;2.15;;;32.80;99.90;;;;;;1799465;79;21159;-72
2022/06/09 03:47:32;;;;;;;6.75;3.10;;;32.60;99.90;;;;;;1800013;78;21203;-72
2022/06/09 03:50:08;;;;;;;5.85;2.25;;;32.80;99.90;;;;;;1778722;79;21160;-75
2022/06/09 03:52:39;;;;;;;8.03;2.55;;;33.00;99.90;;;;;;1799808;79;21242;-73
2022/06/09 03:55:10;;;;;;;3.85;1.60;;;33.00;99.90;;;;;;1771922;79;21191;-72
2022/06/09 03:57:41;;;;;;;3.55;1.60;;;33.00;99.90;;;;;;1799231;78;21262;-73
2022/06/09 04:00:14;;;;;;;4.80;1.90;;;33.00;99.90;;;;;;1800803;78;21187;-72
2022/06/09 04:02:46;;;;;;;4.25;1.67;;;32.80;99.90;;;;;;1798465;78;21292;-72
2022/06/09 04:05:18;;;;;;;3.83;1.55;;;32.80;99.90;;;;;;1792439;78;21593;-71
2022/06/09 04:07:49;;;;;;;6.45;2.10;;;32.80;99.90;;;;;;1794388;78;21200;-74
2022/06/09 04:10:22;;;;;;;5.08;1.98;;;32.70;99.90;;;;;;1811673;78;21180;-72
2022/06/09 04:12:53;;;;;;;5.42;1.80;;;32.70;99.90;;;;;;1797356;78;21644;-72
2022/06/09 04:15:25;;;;;;;6.15;2.40;;;32.80;99.90;;;;;;1794381;78;22303;-73
2022/06/09 04:17:56;;;;;;;6.28;2.20;;;32.70;99.90;;;;;;1794721;78;21637;-72
2022/06/09 04:20:27;;;;;;;6.37;2.15;;;32.60;99.90;;;;;;1794375;78;21223;-72
2022/06/09 04:22:58;;;;;;;5.25;2.40;;;32.80;99.90;;;;;;1794956;78;21164;-72
2022/06/09 04:25:30;;;;;;;5.35;2.02;;;32.70;99.90;;;;;;1794318;78;21700;-72
2022/06/09 04:28:01;;;;;;;7.75;2.55;;;33.10;99.90;;;;;;1813783;77;21156;-73
2022/06/09 04:30:33;;;;;;;6.55;1.80;;;33.10;99.80;;;;;;1794197;78;21203;-82
2022/06/09 04:33:04;;;;;;;5.03;2.30;;;33.10;99.00;;;;;;1795341;78;21250;-83
2022/06/09 04:35:38;;;;;;;5.05;2.20;;;33.20;99.80;;;;;;1794722;78;21196;-82
2022/06/09 04:38:12;;;;;;;5.80;2.65;;;33.50;99.70;;;;;;1795907;78;21262;-82
2022/06/09 04:40:43;;;;;;;9.20;2.35;;;33.50;99.40;;;;;;1803607;77;21144;-82
2022/06/09 04:43:14;;;;;;;5.87;2.47;;;33.40;99.70;;;;;;1794778;78;21128;-81
2022/06/09 04:45:45;;;;;;;4.83;2.27;;;33.50;99.90;;;;;;1795667;78;21192;-82
2022/06/09 04:48:18;;;;;;;4.65;2.22;;;33.40;99.60;;;;;;1793792;78;21179;-80
2022/06/09 04:50:49;;;;;;;5.37;2.15;;;33.50;99.90;;;;;;1794969;78;21259;-81
2022/06/09 04:53:20;;;;;;;7.10;2.52;;;33.40;99.90;;;;;;1805406;78;21151;-82
2022/06/09 04:55:52;;;;;;;4.92;2.20;;;33.20;99.90;;;;;;1796216;79;21548;-82
2022/06/09 04:58:26;;;;;;;3.85;2.30;;;33.40;99.90;;;;;;1729264;81;21840;-83
2022/06/09 05:00:57;;;;;;;6.97;2.30;;;33.30;99.90;;;;;;1768141;78;21194;-82
2022/06/09 05:03:28;;;;;;;11.73;2.25;;;33.30;99.90;;;;;;1778589;78;21146;-82
2022/06/09 05:06:00;;;;;;;4.87;2.02;;;33.40;99.90;;;;;;1817441;78;21131;-83
2022/06/09 05:08:33;;;;;;;5.17;2.27;;;33.60;99.70;;;;;;1844305;77;21087;-83
2022/06/09 05:11:04;;;;;;;6.65;1.85;;;33.50;99.50;;;;;;1864413;77;21122;-83
2022/06/09 05:13:37;;;;;;;7.70;2.50;;;;;;;;;;1868376;77;21067;-82
2022/06/09 05:16:09;;;;;;;10.25;2.87;;;;;;;;;;1868406;77;21173;-81
2022/06/09 05:18:41;;;;;;;5.20;2.12;;;;;;;;;;1869477;77;21095;-82
2022/06/09 05:21:15;;;;;;;7.53;2.70;;;;;;;;;;1865517;77;21118;-81
2022/06/09 05:23:47;;;;;;;7.50;2.52;;;;;;;;;;1872659;77;21200;-81
2022/06/09 05:26:21;;;;;;;7.03;2.45;;;;;;;;;;1872253;77;21127;-82
2022/06/09 05:28:51;;;;;;;6.62;3.05;;;;;;;;;;1868065;77;21138;-82
2022/06/09 05:31:23;;;;;;;5.22;2.42;;;34.40;99.90;;;;;;1868647;77;21145;-82
2022/06/09 05:33:54;;;;;;;6.00;3.20;;;34.30;99.90;;;;;;1868421;77;21091;-83
2022/06/09 05:36:26;;;;;;;5.33;2.80;;;34.20;99.90;;;;;;1869188;77;21174;-82
2022/06/09 05:46:40;;;;;;;7.28;3.10;;;34.00;99.80;;;;;;1844291;77;21103;-82
2022/06/09 05:49:13;;;;;;;6.00;2.70;;;33.80;99.90;;;;;;1847171;77;21177;-82
2022/06/09 05:51:44;;;;;;;5.83;2.52;;;33.70;99.90;;;;;;1857720;77;21188;-82
2022/06/09 05:54:15;;;;;;;6.05;2.80;;;33.70;99.90;;;;;;1868250;76;21122;-82
2022/06/09 05:56:46;;;;;;;5.03;2.42;;;34.00;99.90;;;;;;1840260;77;21087;-81
2022/06/09 05:59:19;;;;;;;5.08;2.47;;;34.00;99.90;;;;;;1853069;77;22485;-83
2022/06/09 06:01:52;;;;;;;6.65;2.33;;;34.00;99.90;;;;;;1865791;77;21146;-82
2022/06/09 06:04:23;;;;;;;7.75;2.70;;;33.70;99.90;;;;;;1857258;77;21138;-83
2022/06/09 06:06:54;;;;;;;8.35;2.60;;;33.60;99.90;;;;;;1861797;77;21534;-83
2022/06/09 06:09:25;;;;;;;5.70;2.37;;;33.70;99.90;;;;;;1860242;77;21167;-83
2022/06/09 06:11:56;;;;;;;5.37;2.40;;;33.70;99.90;;;;;;1803526;78;21187;-72
2022/06/09 06:14:29;;;;;;;6.90;2.77;;;33.90;99.90;;;;;;1776949;79;21166;-75
2022/06/09 06:17:01;;;;;;;6.03;2.52;;;33.70;99.90;;;;;;1814271;78;21099;-75
2022/06/09 06:19:34;;;;;;;5.00;2.50;;;33.70;99.90;;;;;;1821495;77;21131;-76
2022/06/09 06:22:06;;;;;;;6.95;2.52;;;33.70;99.90;;;;;;1798086;78;21217;-75
2022/06/09 06:24:39;;;;;;;5.05;2.55;;;33.70;99.90;;;;;;1803041;78;21638;-76
2022/06/09 06:27:11;;;;;;;6.83;2.55;;;33.90;99.90;;;;;;1802639;78;21705;-77
2022/06/09 06:29:43;;;;;;;6.33;2.75;;;34.00;99.90;;;;;;1801899;77;21205;-76
2022/06/09 06:32:15;;;;;;;6.78;2.30;;;34.30;99.90;;;;;;1811751;78;21237;-74
2022/06/09 06:34:46;;;;;;;6.33;2.72;;;34.30;99.90;;;;;;1802846;78;21135;-75
2022/06/09 06:37:17;;;;;;;5.80;2.83;;;34.40;99.90;;;;;;1799893;78;21668;-76
2022/06/09 06:39:48;;;;;;;4.58;3.17;;;34.20;99.90;;;;;;1811208;78;21879;-75
2022/06/09 06:42:19;;;;;;;7.28;2.98;;;34.10;99.80;;;;;;1786411;79;21243;-76
2022/06/09 06:44:51;;;;;;;6.72;3.15;;;34.10;99.90;;;;;;1796219;78;21157;-75
2022/06/09 06:47:22;;;;;;;5.62;2.55;;;33.90;99.90;;;;;;1780287;78;21196;-75
2022/06/09 06:49:53;;;;;;;8.58;2.60;;;34.00;99.90;;;;;;1780494;79;21107;-76
2022/06/09 06:52:30;;;;;;;4.65;2.50;;;33.90;99.90;;;;;;1789160;79;21232;-76
2022/06/09 06:55:00;;;;;;;6.35;2.70;;;33.90;99.90;;;;;;1781508;78;21186;-77
2022/06/09 06:57:34;;;;;;;6.42;2.72;;;33.80;99.90;;;;;;1806994;77;21216;-77
2022/06/09 07:00:08;;;;;;;5.12;2.62;;;33.80;99.90;;;;;;1804189;78;21182;-76
2022/06/09 07:02:39;;;;;;;6.78;2.33;;;33.70;99.90;;;;;;1813875;76;21565;-76
2022/06/09 07:05:13;;;;;;;4.72;2.65;;;33.80;99.90;;;;;;1750615;80;21108;-75
2022/06/09 07:07:44;;;;;;;8.30;2.90;;;33.80;99.90;;;;;;1788760;79;21175;-76
2022/06/09 07:10:19;;;;;;;6.17;2.83;;;33.80;99.90;;;;;;1804413;78;21719;-75
2022/06/09 07:12:51;;;;;;;8.25;3.02;;;33.60;99.90;;;;;;1780677;78;21287;-75
2022/06/09 07:15:22;;;;;;;5.65;2.83;;;33.80;99.90;;;;;;1786875;78;21153;-77
2022/06/09 07:17:53;;;;;;;5.62;2.98;;;33.80;99.90;;;;;;1808528;78;21205;-76
2022/06/09 07:20:24;;;;;;;7.33;2.85;;;34.00;99.90;;;;;;1777561;79;21170;-78
2022/06/09 07:22:56;;;;;;;8.88;3.12;;;34.00;99.90;;;;;;1814176;78;21210;-76
2022/06/09 07:25:29;;;;;;;4.65;2.47;;;34.00;99.90;;;;;;1811523;78;21238;-75
2022/06/09 07:28:00;;;;;;;4.45;2.27;;;33.70;99.90;;;;;;1789578;79;21240;-76
2022/06/09 07:30:32;;;;;;;8.03;2.70;;;33.80;99.90;;;;;;1761385;80;21199;-78
2022/06/09 07:33:03;;;;;;;7.37;2.90;;;33.70;99.90;;;;;;1787760;78;21639;-77
2022/06/09 07:35:37;;;;;;;5.10;2.58;;;33.80;99.90;;;;;;1787601;79;21269;-76
2022/06/09 07:38:10;;;;;;;9.45;3.30;;;33.70;99.90;;;;;;1781284;78;21192;-77
2022/06/09 07:40:43;;;;;;;6.58;3.12;;;33.70;99.90;;;;;;1810854;78;21062;-74
2022/06/09 07:43:19;;;;;;;6.15;2.75;;;33.80;99.90;;;;;;1807810;77;21162;-75
2022/06/09 07:45:50;;;;;;;12.18;3.40;;;33.90;99.90;;;;;;1809607;78;21115;-75
2022/06/09 07:48:21;;;;;;;10.93;3.15;;;34.00;99.90;;;;;;1766879;80;21223;-75
2022/06/09 07:50:54;;;;;;;6.58;3.05;;;33.90;99.90;;;;;;1800040;78;21108;-76
2022/06/09 07:53:27;;;;;;;10.58;3.30;;;33.80;99.90;;;;;;1794722;78;21276;-75
2022/06/09 07:55:58;;;;;;;5.22;2.47;;;33.90;99.90;;;;;;1805655;78;21139;-76
2022/06/09 07:58:30;;;;;;;7.58;2.90;;;33.70;99.90;;;;;;1765639;80;21231;-75
2022/06/09 08:01:01;;;;;;;6.12;3.10;;;33.70;99.90;;;;;;1789625;78;21707;-76
2022/06/09 08:03:32;;;;;;;6.87;2.72;;;33.90;99.90;;;;;;1792828;78;21704;-75
2022/06/09 08:06:05;;;;;;;9.05;3.37;;;33.60;99.90;;;;;;1787842;78;21204;-75
2022/06/09 08:08:40;;;;;;;5.55;2.58;;;33.90;99.90;;;;;;1799516;78;21193;-73
2022/06/09 08:11:11;;;;;;;6.40;3.00;;;33.80;99.90;;;;;;1798758;78;21618;-75
2022/06/09 08:13:42;;;;;;;6.90;2.87;;;33.70;99.90;;;;;;1836104;77;21141;-76
2022/06/09 08:16:17;;;;;;;8.38;3.00;;;33.70;99.90;;;;;;1833915;77;21213;-76
2022/06/09 08:18:47;;;;;;;6.20;2.65;;;33.70;99.90;;;;;;1830355;77;21109;-76
2022/06/09 08:21:19;;;;;;;7.08;3.10;;;33.70;99.90;;;;;;1841376;77;21722;-75
2022/06/09 08:24:07;;;;;;;6.10;3.05;;;33.90;99.90;;;;;;1814432;78;21164;-75
2022/06/09 08:26:38;;;;;;;9.23;2.92;;;33.90;99.90;;;;;;1775495;80;21154;-74
2022/06/09 08:29:09;;;;;;;7.15;2.77;;;33.80;99.90;;;;;;1806374;78;21145;-76
2022/06/09 08:31:41;;;;;;;4.72;2.62;;;33.80;99.90;;;;;;1797665;78;21158;-75
2022/06/09 08:34:14;;;;;;;5.85;2.58;;;33.50;99.90;;;;;;1772215;80;21180;-75
2022/06/09 08:36:48;;;;;;;5.35;2.80;;;33.80;99.90;;;;;;1772208;79;21075;-76
2022/06/09 08:39:20;;;;;;;6.40;2.50;;;33.50;99.90;;;;;;1784595;78;21684;-74
2022/06/09 08:41:52;;;;;;;5.60;2.47;;;33.60;99.90;;;;;;1756393;80;21238;-75
2022/06/09 08:44:25;;;;;;;6.55;2.58;;;33.50;99.90;;;;;;1781099;78;21581;-75
2022/06/09 08:46:59;;;;;;;6.22;2.75;;;33.70;99.90;;;;;;1769873;79;21761;-75
2022/06/09 08:49:33;;;;;;;10.13;3.40;;;33.70;99.90;;;;;;1809346;78;21664;-75
2022/06/09 08:52:06;;;;;;;7.62;2.77;;;33.80;99.90;;;;;;1807721;78;22711;-75
2022/06/09 08:54:42;;;;;;;6.90;2.83;;;33.50;99.90;;;;;;1799778;78;21718;-75
2022/06/09 08:57:17;;;;;;;7.83;2.72;;;33.50;99.90;;;;;;1797502;78;22310;-75
2022/06/09 08:59:50;;;;;;;7.00;2.60;;;33.60;99.90;;;;;;1758856;81;21630;-75
2022/06/09 09:02:24;;;;;;;4.42;2.58;;;33.70;99.90;;;;;;1779533;79;21576;-76
2022/06/09 09:04:58;;;;;;;5.65;2.77;;;33.50;99.90;;;;;;1766124;80;21681;-76
2022/06/09 09:07:32;;;;;;;5.72;2.35;;;33.60;99.90;;;;;;1814803;78;22054;-74
2022/06/09 09:10:05;;;;;;;5.22;2.83;;;33.70;99.90;;;;;;1817850;78;21196;-74
2022/06/09 09:12:39;;;;;;;8.63;2.87;;;33.50;99.90;;;;;;1806411;78;21580;-75
2022/06/09 09:15:12;;;;;;;5.20;2.27;;;33.60;99.90;;;;;;1804278;78;21208;-74
2022/06/09 09:17:47;;;;;;;5.72;2.80;;;33.70;99.90;;;;;;1805556;78;21161;-74
2022/06/09 09:20:24;;;;;;;6.10;2.75;;;33.40;99.90;;;;;;1812329;78;21119;-75
2022/06/09 09:22:56;;;;;;;6.78;2.55;;;33.50;99.90;;;;;;1816961;78;21109;-75
2022/06/09 09:25:29;;;;;;;7.30;3.02;;;33.40;99.90;;;;;;1824347;78;21160;-78
2022/06/09 09:28:01;;;;;;;11.30;4.33;;;33.50;99.90;;;;;;1827476;78;21219;-75
2022/06/09 09:30:35;;;;;;;12.50;3.47;;;33.60;99.90;;;;;;1826279;76;21549;-75
2022/06/09 09:33:06;;;;;;;8.30;2.95;;;33.40;99.90;;;;;;1827019;78;21604;-76
2022/06/09 09:35:42;;;;;;;5.80;2.77;;;33.50;99.90;;;;;;1829560;78;21173;-75
2022/06/09 09:38:15;;;;;;;7.35;2.60;;;33.60;99.90;;;;;;1821224;78;21137;-75
2022/06/09 09:41:08;;;;;;;6.55;2.70;;;33.60;99.90;;;;;;1823076;78;21184;-75
2022/06/09 09:43:44;;;;;;;4.95;2.75;;;33.30;99.90;;;;;;1683204;83;21204;-75
2022/06/09 09:46:17;;;;;;;6.72;2.70;;;33.40;99.90;;;;;;1711723;82;21296;-75
2022/06/09 09:48:50;;;;;;;7.67;2.95;;;33.60;99.90;;;;;;1691913;84;21773;-75
2022/06/09 09:51:23;;;;;;;5.42;2.15;;;33.40;99.90;;;;;;1732976;82;21303;-73
2022/06/09 09:53:56;;;;;;;7.22;2.62;;;33.60;99.90;;;;;;1728867;81;21209;-74
2022/06/09 09:56:31;;;;;;;7.60;2.90;;;33.40;99.90;;;;;;1702339;82;21222;-76
2022/06/09 09:59:07;;;;;;;5.30;2.85;;;33.40;99.90;;;;;;1733130;81;21268;-76
2022/06/09 10:09:37;;;;;;;7.65;2.52;;;33.20;99.90;;;;;;1738073;81;21192;-75
2022/06/09 10:12:09;;;;;;;4.97;2.08;;;33.20;99.90;;;;;;1739963;81;21095;-75
2022/06/09 10:14:57;;;;;;;8.03;2.52;;;33.20;99.90;;;;;;1756749;80;21156;-76
2022/06/09 10:17:29;;;;;;;7.03;2.42;;;33.20;99.90;;;;;;1765421;80;21662;-74
2022/06/09 10:20:17;;;;;;;5.50;3.10;;;33.30;99.90;;;;;;1761574;80;21108;-77
2022/06/09 10:22:53;;;;;;;7.75;3.08;;;33.10;99.90;;;;;;1759522;80;21170;-75
2022/06/09 10:25:28;;;;;;;5.55;3.17;;;33.10;99.90;;;;;;1765440;80;21163;-77
2022/06/09 10:28:13;;;;;;;6.67;2.90;;;33.10;99.90;;;;;;1758035;80;21675;-76
2022/06/09 10:30:47;;;;;;;6.83;2.47;;;33.30;99.90;;;;;;1757777;80;21670;-75
2022/06/09 10:33:21;;;;;;;7.33;2.20;;;33.10;99.90;;;;;;1757761;80;21598;-76
2022/06/09 10:35:55;;;;;;;7.08;3.10;;;33.10;99.90;;;;;;1753377;80;21275;-76
2022/06/09 10:38:29;;;;;;;6.00;2.37;;;33.30;99.90;;;;;;1759477;80;21849;-76
2022/06/09 10:41:02;;;;;;;7.78;2.60;;;33.30;99.90;;;;;;1763544;80;21262;-76
2022/06/09 10:43:38;;;;;;;7.63;2.60;;;33.20;99.90;;;;;;1760883;80;21090;-75
2022/06/09 10:46:10;;;;;;;5.97;2.95;;;33.10;99.90;;;;;;1761165;80;21248;-75
2022/06/09 10:56:26;;;;;;;5.25;2.45;;;33.20;99.90;;;;;;1753731;81;21540;-74
2022/06/09 10:58:59;;;;;;;6.10;2.65;;;33.10;99.90;;;;;;1755629;81;21154;-75
2022/06/09 11:01:32;;;;;;;12.90;3.40;;;33.10;99.90;;;;;;1764559;81;21206;-75
2022/06/09 11:04:06;;;;;;;10.15;2.95;;;33.10;99.90;;;;;;1764724;80;21280;-77
2022/06/09 11:06:37;;;;;;;5.50;2.80;;;33.30;99.90;;;;;;1770936;80;21161;-74
2022/06/09 11:09:10;;;;;;;11.40;2.77;;;33.00;99.90;;;;;;1730421;81;21192;-75
2022/06/09 11:11:44;;;;;;;5.12;2.20;;;33.10;99.90;;;;;;1728586;81;21659;-78
2022/06/09 11:14:18;;;;;;;7.50;2.90;;;33.20;99.90;;;;;;1734794;82;21202;-78
2022/06/09 11:16:50;;;;;;;7.50;3.20;;;32.90;99.90;;;;;;1729422;81;21235;-78
2022/06/09 11:19:21;;;;;;;5.45;2.52;;;33.20;99.90;;;;;;1742491;81;21158;-77
2022/06/09 11:21:53;;;;;;;9.80;3.02;;;32.90;99.90;;;;;;1731430;80;21182;-78
2022/06/09 11:24:26;;;;;;;7.72;2.67;;;33.10;99.90;;;;;;1702915;83;21244;-78
2022/06/09 11:27:00;;;;;;;4.95;2.52;;;32.80;99.90;;;;;;1703979;83;21196;-78
2022/06/09 11:29:33;;;;;;;4.78;2.60;;;32.80;99.90;;;;;;1705756;83;21394;-78
2022/06/09 11:32:07;;;;;;;8.78;2.98;;;33.10;99.90;;;;;;1724871;82;21231;-78
2022/06/09 11:34:40;;;;;;;4.62;3.02;;;32.70;99.90;;;;;;1732101;81;21164;-77
2022/06/09 11:37:12;;;;;;;7.10;2.80;;;32.80;99.90;;;;;;1749051;80;22142;-79
2022/06/09 11:39:44;;;;;;;7.65;2.80;;;32.90;99.90;;;;;;1727584;81;21216;-77
2022/06/09 11:42:19;;;;;;;8.95;3.25;;;32.60;99.90;;;;;;1727684;82;21278;-78
2022/06/09 11:44:53;;;;;;;7.00;2.67;;;32.60;99.90;;;;;;1742181;81;21182;-77
2022/06/09 11:47:27;;;;;;;8.25;2.47;;;32.70;99.90;;;;;;1741881;81;21710;-79
2022/06/09 11:50:04;;;;;;;6.72;2.37;;;32.70;99.90;;;;;;1703770;82;21723;-77
2022/06/09 11:52:37;;;;;;;8.58;2.77;;;32.60;99.90;;;;;;1709289;83;21261;-76
2022/06/09 11:55:10;;;;;;;11.10;3.12;;;32.50;99.90;;;;;;1705931;82;21622;-76
2022/06/09 11:57:43;;;;;;;10.70;3.22;;;32.70;99.90;;;;;;1736110;81;22315;-77
2022/06/09 12:00:17;;;;;;;7.95;2.98;;;32.50;99.90;;;;;;1711786;83;21736;-76
2022/06/09 12:02:48;;;;;;;8.05;3.75;;;32.50;99.90;;;;;;1691903;83;21271;-76
2022/06/09 12:05:22;;;;;;;7.72;3.30;;;32.50;99.90;;;;;;1695274;82;21787;-74
2022/06/09 12:07:54;;;;;;;7.65;3.45;;;32.60;99.90;;;;;;1691234;83;21273;-78
2022/06/09 12:10:24;;;;;;;7.33;3.27;;;32.70;99.90;;;;;;1728896;81;21229;-76
2022/06/09 12:12:58;;;;;;;7.00;3.85;;;32.60;99.90;;;;;;1733865;80;21815;-76
2022/06/09 12:15:32;;;;;;;8.03;4.08;;;32.40;99.90;;;;;;1709668;82;21218;-75
2022/06/09 12:18:08;;;;;;;12.33;4.10;;;32.50;99.90;;;;;;1709230;83;21250;-75
2022/06/09 12:20:41;;;;;;;11.05;4.17;;;32.50;99.90;;;;;;1705786;82;21699;-76
2022/06/09 12:23:14;;;;;;;7.80;3.85;;;32.30;99.90;;;;;;1695694;84;21662;-77
2022/06/09 12:25:46;;;;;;;9.18;4.22;;;32.60;99.90;;;;;;1751856;79;21218;-77
2022/06/09 12:28:19;;;;;;;9.73;4.12;;;32.20;99.90;;;;;;1730857;81;21135;-76
2022/06/09 12:30:52;;;;;;;11.10;4.17;;;32.30;99.90;;;;;;1734311;81;21150;-77
2022/06/09 12:33:26;;;;;;;9.55;4.30;;;32.20;99.90;;;;;;1700062;82;21916;-77
2022/06/09 12:35:59;;;;;;;9.50;4.60;;;32.30;99.90;;;;;;1690388;83;21837;-77
2022/06/09 12:38:33;;;;;;;11.10;4.67;;;32.30;99.90;;;;;;1719237;82;21782;-77
2022/06/09 12:41:06;;;;;;;9.40;3.92;;;32.20;99.90;;;;;;1722933;81;21631;-78
2022/06/09 12:43:40;;;;;;;8.63;4.80;;;32.30;99.90;;;;;;1687641;83;21274;-76
2022/06/09 12:46:13;;;;;;;12.18;4.40;;;32.20;99.90;;;;;;1688724;84;21168;-77
2022/06/09 12:48:45;;;;;;;12.60;5.58;;;32.00;99.90;;;;;;1705220;83;21623;-76
2022/06/09 12:54:10;;;;;;;11.60;6.75;;;32.10;99.90;;;;;;1780237;80;21222;-75
2022/06/09 12:56:44;;;;;;;12.13;5.50;;;32.00;99.90;;;;;;1794262;79;21191;-77
2022/06/09 12:59:16;;;;;;;11.45;5.33;;;32.30;99.90;;;;;;1797347;78;21157;-76
2022/06/09 13:01:49;;;;;;;9.68;4.97;;;31.90;99.90;;;;;;1795892;79;21162;-75
2022/06/09 13:04:22;;;;;;;10.70;5.65;;;31.80;99.90;;;;;;1791864;79;21109;-74
2022/06/09 13:06:56;;;;;;;8.83;5.28;;;31.80;99.90;;;;;;1794951;78;21230;-82
2022/06/09 13:09:27;;;;;;;9.13;5.00;;;31.80;99.90;;;;;;1799788;78;21160;-83
2022/06/09 13:14:35;;;;;;;11.73;4.40;;;31.70;99.90;;;;;;1792978;79;21286;-81
2022/06/09 13:17:08;;;;;;;9.95;5.05;;;31.60;99.90;;;;;;1794252;79;21214;-83
2022/06/09 13:19:39;;;;;;;10.75;5.85;;;32.00;99.90;;;;;;1792863;79;21196;-83
2022/06/09 13:22:12;;;;;;;9.93;5.40;;;31.60;99.90;;;;;;1793008;79;21109;-83
2022/06/09 13:24:45;;;;;;;9.20;5.17;;;31.70;99.90;;;;;;1796103;79;21152;-83
2022/06/09 13:27:18;;;;;;;12.37;5.10;;;31.70;99.90;;;;;;1796081;79;21091;-82
2022/06/09 13:29:52;;;;;;;11.12;5.25;;;31.60;99.90;;;;;;1792848;80;21656;-83
2022/06/09 13:32:28;;;;;;;10.68;5.00;;;31.60;99.90;;;;;;1789993;80;21269;-82
2022/06/09 13:35:02;;;;;;;12.23;4.87;;;31.60;99.90;;;;;;1800029;79;21184;-82
2022/06/09 13:37:35;;;;;;;10.68;4.97;;;31.50;99.90;;;;;;1799032;79;21170;-81
2022/06/09 13:40:07;;;;;;;12.53;4.95;;;31.50;99.90;;;;;;1769184;80;21221;-83
2022/06/09 13:42:40;;;;;;;9.33;4.40;;;31.50;99.90;;;;;;1792807;79;21174;-82
2022/06/09 13:45:14;;;;;;;11.25;4.58;;;31.50;99.90;;;;;;1782884;79;21888;-81